Historique des mesures à Cassis (13260), France
Quotidien Résumé Mars 4, 2017 Unités:  Métrique    US   Métrique/US
« Précédent (Jour)
Suivant (Jour) »
Quotidien Hebdomadaire Mensuel Annuel Période au choix
  Maximum: Minimum: Moyenne:
Température: TemperatureC °C 9.9 °C 11 °C
Point de rosée: DewpointC °C 5.7 °C 6.7 °C
Humidité: Humidity % 67 % 72 %
Vitesse du vent: 0 km/h 0 km/h 9.3 km/h
Rafales: 0 km/h - -
Vent:- - South
Pression: PressurehPa hPa 993.1 hPa -
Précipitations: 19.6 mm    
Historical Graphs
 
 
Mesures pour : Mars 4, 2017
Heure Temperature Point de rosée Pression Vent Vitesse du vent Rafales Humidité Pluie (par heure) Conditions
TemperatureC °C DewpointC °C PressurehPa hPa Calm     Humidity % HourlyPrecipMM mm SoftwareType W/m2
00:11 13.5 °C 7.7 °C 1001.9 hPa Calm   27.2 km/h 68 % 0.0 mm open2300-1.11 W/m2
01:10 13.6 °C 7.6 °C 1000.6 hPa SE 9.3 km/h 9.3 km/h 67 % 0.0 mm open2300-1.11 W/m2
02:11 13.6 °C 7.8 °C 1000.6 hPa ESE 10.9 km/h 10.9 km/h 68 % 0.0 mm open2300-1.11 W/m2
03:10 13.5 °C 7.5 °C 997.5 hPa SE 10.9 km/h 26.2 km/h 67 % 0.0 mm open2300-1.11 W/m2
04:11 13.6 °C 7.6 °C 995.8 hPa East 30.1 km/h 42.6 km/h 67 % 0.0 mm open2300-1.11 W/m2
05:10 12.9 °C 8.3 °C 993.5 hPa SE 9.3 km/h 23.8 km/h 74 % 0.5 mm open2300-1.11 W/m2
06:11 11.7 °C 8.7 °C 993.1 hPa North 10.3 km/h 55.7 km/h 82 % 3.6 mm open2300-1.11 W/m2
07:10 11.1 °C 8.3 °C 994.8 hPa South 23 km/h 23 km/h 83 % 8.4 mm open2300-1.11 W/m2
08:11 11.6 °C 8.6 °C 995.1 hPa SW 9.8 km/h 9.8 km/h 82 % 0.0 mm open2300-1.11 W/m2
09:10 11.4 °C 7.7 °C 996.2 hPa SSE 17.9 km/h 33.6 km/h 78 % 0.5 mm open2300-1.11 W/m2
10:11 10.4 °C 7.3 °C 996.8 hPa WNW 8 km/h 16.9 km/h 81 % 0.0 mm open2300-1.11 W/m2
11:10 10.2 °C 6.7 °C 998.2 hPa South 23.8 km/h 23.8 km/h 79 % 0.0 mm open2300-1.11 W/m2
12:11 10.0 °C 6.3 °C 998.9 hPa SSW 9.3 km/h 9.3 km/h 78 % 0.0 mm open2300-1.11 W/m2
13:10 10.8 °C 6.9 °C 999.9 hPa SSW 14 km/h 18.7 km/h 77 % 0.5 mm open2300-1.11 W/m2
14:11 11.3 °C 6.7 °C 1000.6 hPa NNW 14.5 km/h 17.9 km/h 73 % 0.0 mm open2300-1.11 W/m2
15:10 10.6 °C 6.7 °C 1001.6 hPa NW 4.2 km/h 13.2 km/h 77 % 2.5 mm open2300-1.11 W/m2
16:11 11.0 °C 6.9 °C 1001.6 hPa WNW 4.7 km/h 15.6 km/h 76 % 3.0 mm open2300-1.11 W/m2
17:10 11.3 °C 5.8 °C 1001.9 hPa WNW 12.2 km/h 12.7 km/h 69 % 0.0 mm open2300-1.11 W/m2
18:11 11.3 °C 5.8 °C 1002.9 hPa Calm   9.8 km/h 69 % 0.0 mm open2300-1.11 W/m2
19:10 11.1 °C 6.1 °C 1003.6 hPa Calm   1.8 km/h 71 % 0.0 mm open2300-1.11 W/m2
20:11 10.1 °C 5.7 °C 1004.6 hPa Calm     74 % 0.0 mm open2300-1.11 W/m2
21:10 9.9 °C 5.7 °C 1004.6 hPa Calm     75 % 0.0 mm open2300-1.11 W/m2
22:11 10.0 °C 6.1 °C 1005.3 hPa NNE 2.3 km/h 2.3 km/h 77 % 0.0 mm open2300-1.11 W/m2
23:10 10.3 °C 6.2 °C 1006.3 hPa WNW 8.9 km/h 8.9 km/h 76 % 0.5 mm open2300-1.11 W/m2
Observations météo à CASSIS
WU-History script by Weather Underground - 1 mb